DW9006 Weather Reports


Display with metric or nautical units.
time (UTC)temp
F
wind
direction
speed
MPH
gust
MPH
rain 1hr
in
rain 24hr
in
rain mn
in
humidity
%
barometer
mb
20210923204716 72 257 0.0 4.0 0.00 0.00 0.00 51 1016.7
20210923203257 72 290 0.0 10.0 0.00 0.00 0.00 51 1016.7
20210923201725 72 294 0.0 1.0 0.00 0.00 0.00 53 1016.7
20210923200113 73 355 0.0 1.0 0.00 0.00 0.00 52 1016.6
20210923194753 72 330 0.0 8.0 0.00 0.00 0.00 51 1016.8
20210923193117 72 42 1.0 5.0 0.00 0.00 0.00 53 1016.9
20210923191621 72 315 1.0 12.0 0.00 0.00 0.00 52 1017.0
20210923190106 72 311 0.0 7.0 0.00 0.00 0.00 54 1017.4
20210923184711 72 301 1.0 8.0 0.00 0.00 0.00 56 1017.5
20210923183132 71 28 0.0 9.0 0.00 0.00 0.00 57 1017.8
20210923181644 71 5 0.0 2.0 0.00 0.00 0.00 58 1018.1
20210923180100 70 320 0.0 8.0 0.00 0.00 0.00 56 1018.2
20210923174600 70 29 2.0 10.0 0.00 0.00 0.00 57 1018.5
20210923173038 70 58 0.0 7.0 0.00 0.00 0.00 58 1018.5
20210923151527 65 321 1.0 8.0 0.00 0.00 0.00 72 1019.2
20210923150018 64 96 0.0 1.0 0.00 0.00 0.00 74 1019.2
20210923144542 63 62 0.0 8.0 0.00 0.00 0.00 74 1019.0
20210923143009 62 306 0.0 5.0 0.00 0.00 0.00 77 1018.8
20210923141509 61 312 0.0 2.0 0.00 0.00 0.00 78 1018.8
20210923140108 60 44 0.0 6.0 0.00 0.00 0.00 82 1018.6
20210923134641 59 308 0.0 1.0 0.00 0.00 0.00 82 1018.7
20210923133203 58 48 0.0 0.0 0.00 0.00 0.00 87 1018.6
20210923131545 56 252 0.0 1.0 0.00 0.00 0.00 89 1018.5
20210923130126 53 16 0.0 1.0 0.00 0.00 0.00 95 1018.7
20210923124551 51 337 0.0 0.0 0.00 0.00 0.00 98 1018.5
20210923123053 51 355 0.0 0.0 0.00 0.00 0.00 98 1018.5
20210923121543 50 355 0.0 0.0 0.00 0.00 0.00 98 1018.4
20210923120012 50 5 0.0 0.0 0.00 0.00 0.00 98 1018.3
20210923114524 50 5 0.0 0.0 0.00 0.00 0.00 98 1018.1
20210923113116 50 5 0.0 0.0 0.00 0.00 0.00 97 1017.9
20210923111626 50 5 0.0 0.0 0.00 0.00 0.00 97 1017.9
20210923110141 50 5 0.0 0.0 0.00 0.00 0.00 97 1017.8
20210923104629 50 5 0.0 0.0 0.00 0.00 0.00 97 1017.7
20210923103131 50 5 0.0 0.0 0.00 0.00 0.00 97 1017.6
20210923101712 50 5 0.0 0.0 0.00 0.00 0.00 97 1017.6
20210923100135 51 5 0.0 0.0 0.00 0.00 0.00 97 1017.5
20210923094630 51 5 0.0 0.0 0.00 0.00 0.00 97 1017.4
20210923053152 55 5 0.0 0.0 0.00 0.00 0.00 93 1017.9
20210923051540 56 5 0.0 0.0 0.00 0.00 0.00 92 1017.8
20210923050024 56 5 0.0 0.0 0.00 0.00 0.00 92 1017.8
20210923044535 56 5 0.0 0.0 0.00 0.00 0.00 92 1017.9
20210923043036 56 5 0.0 0.0 0.00 0.00 0.00 93 1017.8
20210923041527 57 5 0.0 0.0 0.00 0.00 0.00 93 1017.8
20210923040040 57 5 0.0 0.0 0.00 0.00 0.00 92 1018.0
20210923034523 58 5 0.0 0.0 0.00 0.00 0.00 91 1017.9
20210923033002 58 5 0.0 0.0 0.00 0.00 0.00 89 1017.8
20210923031752 59 5 0.0 0.0 0.00 0.00 0.00 87 1017.6
20210923030112 60 5 0.0 0.0 0.00 0.00 0.00 85 1017.4
20210923024638 62 5 0.0 0.0 0.00 0.00 0.00 81 1017.4
20210923023110 62 333 0.0 0.0 0.00 0.00 0.00 80 1017.1
20210923021551 62 316 0.0 0.0 0.00 0.00 0.00 80 1017.1
20210923020122 63 292 0.0 0.0 0.00 0.00 0.00 77 1017.2
20210923014652 63 289 0.0 0.0 0.00 0.00 0.00 78 1016.9
20210923013239 63 322 0.0 3.0 0.00 0.00 0.00 79 1016.7
20210923011606 63 299 0.0 0.0 0.00 0.00 0.00 79 1016.5
20210923010029 64 299 0.0 1.0 0.00 0.00 0.00 80 1016.2
20210923004535 63 250 0.0 1.0 0.00 0.00 0.00 79 1016.0
20210923003027 64 273 0.0 0.0 0.00 0.00 0.00 82 1015.9
20210923001538 65 282 0.0 1.0 0.00 0.00 0.00 76 1015.7
20210923000050 66 301 0.0 0.0 0.00 0.00 0.00 75 1015.7
20210922214520 73 311 0.0 11.0 0.00 0.00 0.00 65 1015.3
20210922213018 73 235 0.0 7.0 0.00 0.00 0.00 65 1015.3
20210922211644 73 217 0.0 8.0 0.00 0.00 0.00 63 1015.3
20210922210146 73 294 1.0 9.0 0.00 0.00 0.00 64 1015.3